^^
Datos históricos de la estación: Murcia-Puente Tocinos
Diario Informe para Octubre 10, 2021 Unidades:  Métrico    Ingés   Ambas
Diario Semanal Mensual Anual
  Máxima: Mínima: Promedio:
Temperatura: 21.2 °C 18.1 °C 19.4 °C
Punto de rocio: 15.5 °C 14.3 °C 15 °C
Humedad: 81% 65% 76%
Velocidad viento: 8.4km/h 0km/h 4.1km/h
Racha viento: 13km/h - -
Viento- - Este
Presión: 1019.8 hPa 1018.8 hPa -
Precipitación: 0.0 mm    
 
 
Tabla de datos para Octubre 10, 2021
Hora Temperatura Punto de rocio Presión Viento Velocidad viento Racha viento Humedad Intensidad lluvia(por hora) Nubes
00:04 20 °C 15.5 °C 1019.4 hPa NE 5.8 km/h 9.3 km/h 75% 0.0 mm
00:09 20 °C 15.4 °C 1019.5 hPa NE 5.8 km/h 9.3 km/h 75% 0.0 mm
00:14 19.9 °C 15.3 °C 1019.5 hPa NE 5.8 km/h 8.4 km/h 75% 0.0 mm
00:19 19.9 °C 15.3 °C 1019.5 hPa NNE 5.6 km/h 7.4 km/h 75% 0.0 mm
00:24 19.9 °C 15.3 °C 1019.5 hPa NE 4.7 km/h 7.4 km/h 75% 0.0 mm
00:29 19.9 °C 15.3 °C 1019.5 hPa NE 4.3 km/h 4.7 km/h 75% 0.0 mm
00:34 19.9 °C 15.4 °C 1019.5 hPa NE 3.2 km/h 5.6 km/h 75.2% 0.0 mm
00:39 19.8 °C 15.5 °C 1019.5 hPa NE 3.4 km/h 7.4 km/h 76% 0.0 mm
00:44 19.7 °C 15.4 °C 1019.5 hPa NE 3.9 km/h 5.8 km/h 76% 0.0 mm
00:49 19.7 °C 15.3 °C 1019.5 hPa NNE 4 km/h 7.4 km/h 76% 0.0 mm
00:54 19.6 °C 15.2 °C 1019.5 hPa NE 4.7 km/h 8.4 km/h 76% 0.0 mm
00:59 19.4 °C 15.2 °C 1019.4 hPa NE 4.7 km/h 7.4 km/h 76.7% 0.0 mm
01:04 19.4 °C 15.3 °C 1019.4 hPa NE 5 km/h 7.4 km/h 77% 0.0 mm
01:09 19.4 °C 15.3 °C 1019.5 hPa NNE 5 km/h 8.4 km/h 77% 0.0 mm
01:14 19.3 °C 15.2 °C 1019.5 hPa North 5 km/h 7.6 km/h 77% 0.0 mm
01:19 19.3 °C 15.3 °C 1019.5 hPa North 5 km/h 7.4 km/h 77.5% 0.0 mm
01:24 19.2 °C 15.3 °C 1019.5 hPa NNE 5 km/h 8.4 km/h 78% 0.0 mm
01:29 19.2 °C 15.3 °C 1019.4 hPa NE 5 km/h 7.6 km/h 78% 0.0 mm
01:34 19.2 °C 15.3 °C 1019.4 hPa NE 5 km/h 8.4 km/h 78% 0.0 mm
01:39 19.2 °C 15.2 °C 1019.4 hPa NE 5 km/h 7.6 km/h 78% 0.0 mm
01:44 19.1 °C 15.2 °C 1019.3 hPa NE 5 km/h 5.8 km/h 78% 0.0 mm
01:49 19.1 °C 15.2 °C 1019.3 hPa NE 4.6 km/h 5.6 km/h 78% 0.0 mm
01:54 19.1 °C 15.2 °C 1019.3 hPa NE 3.2 km/h 7.4 km/h 78% 0.0 mm
01:59 19.1 °C 15.1 °C 1019.3 hPa NNE 3.4 km/h 5.8 km/h 78% 0.0 mm
02:04 18.9 °C 15.1 °C 1019.3 hPa NNE 3.9 km/h 7.4 km/h 78.6% 0.0 mm
02:09 18.9 °C 15.2 °C 1019.4 hPa NNE 4.1 km/h 7.6 km/h 79% 0.0 mm
02:14 18.8 °C 15.1 °C 1019.4 hPa NE 4.7 km/h 7.4 km/h 79% 0.0 mm
02:19 18.8 °C 15.1 °C 1019.4 hPa NNE 4.7 km/h 7.6 km/h 79% 0.0 mm
02:24 18.7 °C 15 °C 1019.4 hPa NE 4.7 km/h 7.4 km/h 79% 0.0 mm
02:29 18.7 °C 15 °C 1019.4 hPa NNE 4.7 km/h 7.6 km/h 79% 0.0 mm
02:34 18.7 °C 14.9 °C 1019.4 hPa NNE 5 km/h 7.4 km/h 79% 0.0 mm
02:39 18.6 °C 14.9 °C 1019.4 hPa NNE 4.7 km/h 5.8 km/h 79% 0.0 mm
02:44 18.6 °C 15 °C 1019.4 hPa NNE 3.9 km/h 5.8 km/h 79.5% 0.0 mm
02:49 18.7 °C 15.1 °C 1019.4 hPa NE 3.6 km/h 3.9 km/h 80% 0.0 mm
02:54 18.7 °C 15.2 °C 1019.4 hPa NE 2.9 km/h 4.7 km/h 80% 0.0 mm
02:59 18.6 °C 15 °C 1019.4 hPa NE 2.7 km/h 3.9 km/h 79.2% 0.0 mm
03:04 18.6 °C 14.9 °C 1019.4 hPa NE 2.3 km/h 5.6 km/h 79.3% 0.0 mm
03:09 18.4 °C 14.9 °C 1019.4 hPa NE 2.4 km/h 4.7 km/h 80% 0.0 mm
03:14 18.3 °C 14.8 °C 1019.4 hPa NE 2.9 km/h 3.7 km/h 80% 0.0 mm
03:19 18.3 °C 14.8 °C 1019.4 hPa NE 2.8 km/h 3.7 km/h 80% 0.0 mm
03:24 18.3 °C 14.8 °C 1019.4 hPa NE 2.3 km/h 3.9 km/h 80% 0.0 mm
03:29 18.3 °C 14.9 °C 1019.3 hPa NE 2.3 km/h 3.7 km/h 80.6% 0.0 mm
03:34 18.3 °C 14.8 °C 1019.3 hPa NE 2.3 km/h 3.7 km/h 80% 0.0 mm
03:39 18.3 °C 14.8 °C 1019.3 hPa NE 1.8 km/h 3.7 km/h 80% 0.0 mm
03:44 18.3 °C 14.7 °C 1019.2 hPa Calm   3.9 km/h 80% 0.0 mm
03:49 18.2 °C 14.8 °C 1019.2 hPa NE 0.5 km/h 3.9 km/h 80.6% 0.0 mm
03:54 18.2 °C 14.9 °C 1019.2 hPa NE 2.3 km/h 4.7 km/h 81% 0.0 mm
03:59 18.2 °C 14.9 °C 1019.2 hPa Oeste 2.5 km/h 5.8 km/h 81% 0.0 mm
04:04 18.2 °C 14.9 °C 1019.2 hPa Oeste 3.2 km/h 4.7 km/h 81% 0.0 mm
04:09 18.2 °C 14.9 °C 1019.2 hPa Oeste 3.2 km/h 3.9 km/h 81% 0.0 mm
04:14 18.2 °C 14.9 °C 1019.1 hPa Oeste 2.9 km/h 3.7 km/h 81% 0.0 mm
04:19 18.2 °C 14.9 °C 1019.1 hPa Oeste 2.2 km/h   81% 0.0 mm
04:24 18.2 °C 14.9 °C 1019.1 hPa Calm   4.7 km/h 81% 0.0 mm
04:29 18.2 °C 14.9 °C 1019.1 hPa SSE 0.5 km/h 5.6 km/h 81% 0.0 mm
04:34 18.2 °C 14.9 °C 1019.1 hPa SSE 2.3 km/h 3.7 km/h 81% 0.0 mm
04:39 18.1 °C 14.8 °C 1019.1 hPa SSE 2.3 km/h 3.9 km/h 81% 0.0 mm
04:44 18.1 °C 14.8 °C 1019.0 hPa SSE 2.3 km/h 5.6 km/h 81% 0.0 mm
04:49 18.1 °C 14.8 °C 1019.0 hPa SSE 2.3 km/h 3.7 km/h 81% 0.0 mm
20:44 21.2 °C 14.3 °C 1018.8 hPa NNE 8.4 km/h 11.1 km/h 65% 0.0 mm
20:49 21.1 °C 14.5 °C 1018.8 hPa NE 7.8 km/h 11.1 km/h 65.9% 0.0 mm
20:54 21 °C 14.4 °C 1019.0 hPa NE 6.9 km/h 11.9 km/h 66% 0.0 mm
20:59 20.9 °C 14.5 °C 1019.0 hPa NE 7.2 km/h 11.1 km/h 66.8% 0.0 mm
21:04 20.8 °C 14.5 °C 1019.0 hPa NE 7.6 km/h 11.9 km/h 67% 0.0 mm
21:09 20.8 °C 14.5 °C 1019.0 hPa NE 7.9 km/h 11.9 km/h 67.1% 0.0 mm
21:14 20.8 °C 14.6 °C 1019.0 hPa NE 8.4 km/h 11.1 km/h 68% 0.0 mm
21:19 20.7 °C 14.6 °C 1019.0 hPa NE 8.1 km/h 11.1 km/h 68% 0.0 mm
21:24 20.7 °C 14.5 °C 1019.0 hPa NE 7.6 km/h 10 km/h 68% 0.0 mm
21:29 20.6 °C 14.6 °C 1019.0 hPa NE 7.6 km/h 9.5 km/h 68.6% 0.0 mm
21:34 20.6 °C 14.7 °C 1019.0 hPa NNE 7.6 km/h 11.1 km/h 69% 0.0 mm
21:39 20.5 °C 14.6 °C 1019.2 hPa NE 7.6 km/h 11.1 km/h 69% 0.0 mm
21:44 20.4 °C 14.7 °C 1019.2 hPa NNE 7.6 km/h 13 km/h 70% 0.0 mm
21:49 20.3 °C 14.7 °C 1019.2 hPa NNE 7.6 km/h 11.1 km/h 70% 0.0 mm
21:54 20.3 °C 14.9 °C 1019.3 hPa NNE 7.6 km/h 11.1 km/h 70.9% 0.0 mm
21:59 20.2 °C 14.8 °C 1019.3 hPa NNE 7.1 km/h 7.6 km/h 71% 0.0 mm
22:04 20.2 °C 14.8 °C 1019.3 hPa NNE 6.4 km/h 7.6 km/h 71% 0.0 mm
22:09 20.2 °C 14.8 °C 1019.5 hPa NNE 5.5 km/h 7.4 km/h 71% 0.0 mm
22:14 20.1 °C 14.9 °C 1019.5 hPa NNE 3.9 km/h 7.4 km/h 71.9% 0.0 mm
22:19 20 °C 14.8 °C 1019.5 hPa NNO 3.9 km/h 5.8 km/h 72% 0.0 mm
22:24 19.9 °C 14.7 °C 1019.6 hPa NO 3.9 km/h 6.9 km/h 72% 0.0 mm
22:29 19.9 °C 14.7 °C 1019.6 hPa North 3.9 km/h 7.4 km/h 72% 0.0 mm
22:34 19.8 °C 14.8 °C 1019.6 hPa NNO 3.9 km/h 7.4 km/h 72.6% 0.0 mm
22:39 19.8 °C 14.8 °C 1019.7 hPa NNO 3.9 km/h 5.8 km/h 73% 0.0 mm
22:44 19.7 °C 14.7 °C 1019.7 hPa NNO 3.9 km/h 5.6 km/h 73% 0.0 mm
22:49 19.7 °C 14.9 °C 1019.7 hPa NE 3.6 km/h 5.6 km/h 73.8% 0.0 mm
22:54 19.8 °C 15 °C 1019.7 hPa NE 3.2 km/h 3.7 km/h 74% 0.0 mm
22:59 19.8 °C 15.1 °C 1019.7 hPa NE 1.9 km/h 3.9 km/h 74% 0.0 mm
23:04 19.8 °C 15.1 °C 1019.7 hPa Calm   3.7 km/h 74% 0.0 mm
23:09 19.8 °C 15.1 °C 1019.7 hPa NE 0.8 km/h 3.9 km/h 74% 0.0 mm
23:14 19.9 °C 15.1 °C 1019.7 hPa NE 2.3 km/h 3.7 km/h 74% 0.0 mm
23:19 19.9 °C 15.1 °C 1019.7 hPa NE 1.5 km/h 5.6 km/h 74% 0.0 mm
23:24 19.9 °C 15.1 °C 1019.8 hPa Calm   3.7 km/h 74% 0.0 mm
23:29 19.9 °C 15.1 °C 1019.8 hPa NNO 0.8 km/h 4.7 km/h 74% 0.0 mm
23:34 19.9 °C 15.1 °C 1019.8 hPa NO 2.3 km/h 5.8 km/h 74% 0.0 mm
23:39 19.9 °C 15.1 °C 1019.8 hPa NO 2.5 km/h 5.6 km/h 74% 0.0 mm
23:44 19.9 °C 15.1 °C 1019.8 hPa NO 2.9 km/h 6.4 km/h 74% 0.0 mm
23:49 19.8 °C 15.1 °C 1019.8 hPa NO 3 km/h 7.4 km/h 74% 0.0 mm
23:54 19.7 °C 15.1 °C 1019.8 hPa NO 3.2 km/h 5.8 km/h 74.8% 0.0 mm
23:59 19.7 °C 15.1 °C 1019.8 hPa NO 3.5 km/h 7.4 km/h 75% 0.0 mm
Murcia-Puente Tocinos, Espa?a
Compliments of Weather Underground - 2 mb

La estación de MeteoMurcia.com, publica sus datos en los siguientes proyectos:

Weather Underground PWS IMURCIAP2 Meteoclimatic www.awekas.at

W3Counter
Web Analytics